Pagrindinis puslapis
METAR-TAF:

METAR-TAF

Oro uostai :

Linšiopingas, Švedija

platuma: 58-24N, ilguma: 015-41E, Aukštis: 52 m

Dabartinis oras

Ataskaita buvo paskelbta 23 minutes, ne 12:50 UTC
Vėjas 12 kt iš Šiaurės Vakarų
Temperatūra 7°C
Drėgmė 53%
Slėgis 1018 hPa
Matomumas 10 km arba daugiau

METAR: ESSL 231250Z AUTO 32012KT 9999 NCD 07/M02 Q1018

Laikas: 15:13 (13:13 UTC)

Prognozė

Ataskaita buvo paskelbta 9 valandos ir 43 minutes, ne 03:30 UTC
Prognozė galioja nuo 23 metu 04 UTC su 23 metu 06 UTC
Vėjas 10 kt iš Šiaurės
Matomumas 10 km arba daugiau
Su prošvaistėmis ne aukštis 3000 ft

TAF: ESSL 230330Z 2304/2306 35010KT 9999 BKN030

Orai ataskaitas ir orų prognozės (METAR, TAF).

turimą stotys yra geltonos ir raudonos taškus žemėlapyje.

Perkelti pele per norėdami pamatyti stoties vardą.

Tada spustelėkite, norėdami matyti oro stebėjimo ir prognozės.

Norėdami pakeisti žemėlapį: spustelėkite ant žalios mygtukų su juodo kryžiaus žemyn,; žalią mygtuką su brūkšneliu, jei norite nutolinti; arba žalių rodyklių gretimoms žemėlapius.


METAR-TAF: